createdAt,value
2022-10-31T00:00:02.939Z,97666.44
2022-10-31T00:02:31.211Z,97674.94
2022-10-31T00:04:57.783Z,97672.34
2022-10-31T00:07:24.382Z,97679.19
2022-10-31T00:09:50.919Z,97681.75
2022-10-31T00:12:17.450Z,97668.13
2022-10-31T00:14:44.030Z,97668.19
2022-10-31T00:17:10.659Z,97638.47
2022-10-31T00:19:37.218Z,97664.78
2022-10-31T00:22:03.764Z,97658.81
2022-10-31T00:24:30.314Z,97679.19
2022-10-31T00:26:56.919Z,97646.06
2022-10-31T00:29:23.465Z,97647.81
2022-10-31T00:31:53.703Z,97656.25
2022-10-31T00:34:20.331Z,97656.28
2022-10-31T00:36:46.914Z,97646.94
2022-10-31T00:39:13.474Z,97625.78
2022-10-31T00:41:40.070Z,97624.00
2022-10-31T00:44:06.603Z,97630.84
2022-10-31T00:46:33.128Z,97652.91
2022-10-31T00:48:59.745Z,97630.84
2022-10-31T00:51:26.342Z,97642.72
2022-10-31T00:53:52.909Z,97632.53
2022-10-31T00:56:19.463Z,97646.13
2022-10-31T00:58:46.011Z,97641.84
2022-10-31T01:01:12.698Z,97623.19
2022-10-31T01:03:39.782Z,97640.19
2022-10-31T01:06:11.122Z,97649.53
2022-10-31T01:08:38.391Z,97646.13
2022-10-31T01:11:12.701Z,97647.81
2022-10-31T01:13:39.344Z,97629.13
2022-10-31T01:16:06.398Z,97631.69
2022-10-31T01:18:33.358Z,97620.66
2022-10-31T01:21:01.130Z,97641.84
2022-10-31T01:23:28.399Z,97634.22
2022-10-31T01:26:02.494Z,97641.84
2022-10-31T01:28:29.139Z,97646.97
2022-10-31T01:30:55.774Z,97640.97
2022-10-31T01:33:22.350Z,97640.97
2022-10-31T01:35:48.981Z,97651.19
2022-10-31T01:38:15.872Z,97640.06
2022-10-31T01:40:42.525Z,97621.41
2022-10-31T01:43:12.892Z,97632.41
2022-10-31T01:45:39.498Z,97635.81
2022-10-31T01:48:06.286Z,97649.38
2022-10-31T01:50:36.492Z,97653.56
2022-10-31T01:53:03.387Z,97635.69
2022-10-31T01:55:33.573Z,97635.69
2022-10-31T01:58:03.622Z,97657.75
2022-10-31T02:00:31.472Z,97655.13
2022-10-31T02:02:58.378Z,97681.34
2022-10-31T02:05:26.866Z,97645.78
2022-10-31T02:07:56.594Z,97647.47
2022-10-31T02:10:24.145Z,97642.28
2022-10-31T02:12:52.465Z,97666.00
2022-10-31T02:15:19.254Z,97653.16
2022-10-31T02:17:46.101Z,97662.47
2022-10-31T02:20:23.204Z,97673.44
2022-10-31T02:23:08.091Z,97655.59
2022-10-31T02:25:40.578Z,97667.41
2022-10-31T02:28:26.132Z,97647.13
2022-10-31T02:31:05.952Z,97642.00
2022-10-31T02:33:45.435Z,97647.84
2022-10-31T02:36:29.088Z,97645.28
2022-10-31T02:39:15.903Z,97642.69
2022-10-31T02:41:45.572Z,97645.22
2022-10-31T02:44:12.115Z,97641.84
2022-10-31T02:46:48.514Z,97642.66
2022-10-31T02:49:23.271Z,97652.06
2022-10-31T02:51:50.199Z,97641.84
2022-10-31T02:54:21.109Z,97635.03
2022-10-31T02:56:48.592Z,97650.28
2022-10-31T02:59:15.929Z,97631.63
2022-10-31T03:01:51.659Z,97640.91
2022-10-31T03:04:37.080Z,97639.25
2022-10-31T03:07:03.674Z,97651.94
2022-10-31T03:09:45.363Z,97643.44
2022-10-31T03:12:16.169Z,97666.31
2022-10-31T03:14:53.808Z,97645.16
2022-10-31T03:17:24.323Z,97639.25
2022-10-31T03:19:54.106Z,97647.75
2022-10-31T03:22:22.495Z,97652.81
2022-10-31T03:24:52.156Z,97647.75
2022-10-31T03:27:22.368Z,97659.63
2022-10-31T03:29:50.211Z,97635.91
2022-10-31T03:32:20.228Z,97640.19
2022-10-31T03:34:47.231Z,97665.63
2022-10-31T03:37:16.047Z,97685.06
2022-10-31T03:39:44.455Z,97653.78
2022-10-31T03:42:16.525Z,97655.53
2022-10-31T03:44:46.989Z,97669.94
2022-10-31T03:47:14.288Z,97653.81
2022-10-31T03:49:41.139Z,97649.53
2022-10-31T03:52:19.453Z,97641.88
2022-10-31T03:54:47.520Z,97674.13
2022-10-31T03:57:14.036Z,97653.78
2022-10-31T03:59:43.522Z,97647.84
2022-10-31T04:02:14.432Z,97669.06
2022-10-31T04:04:41.516Z,97667.41
2022-10-31T04:07:09.328Z,97669.03
2022-10-31T04:09:37.466Z,97674.91
2022-10-31T04:12:06.428Z,97681.78
2022-10-31T04:14:33.836Z,97658.91
2022-10-31T04:17:02.050Z,97677.50
2022-10-31T04:19:28.656Z,97679.25
2022-10-31T04:21:55.220Z,97665.63
2022-10-31T04:24:21.758Z,97686.91
2022-10-31T04:26:48.314Z,97669.06
2022-10-31T04:29:14.918Z,97673.28
2022-10-31T04:31:41.507Z,97698.69
2022-10-31T04:34:08.461Z,97669.00
2022-10-31T04:36:35.106Z,97691.03
2022-10-31T04:39:01.654Z,97714.72
2022-10-31T04:41:28.288Z,97692.75
2022-10-31T04:43:55.026Z,97684.31
2022-10-31T04:46:21.581Z,97679.25
2022-10-31T04:48:48.125Z,97691.09
2022-10-31T04:51:14.742Z,97692.81
2022-10-31T04:53:41.273Z,97704.69
2022-10-31T04:56:07.896Z,97725.03
2022-10-31T04:58:34.454Z,97704.69
2022-10-31T05:01:01.325Z,97720.81
2022-10-31T05:03:27.984Z,97724.22
2022-10-31T05:05:54.544Z,97717.50
2022-10-31T05:08:21.088Z,97715.84
2022-10-31T05:10:47.712Z,97731.97
2022-10-31T05:13:15.784Z,97719.22
2022-10-31T05:15:42.393Z,97717.63
2022-10-31T05:18:09.252Z,97724.47
2022-10-31T05:20:35.846Z,97743.13
2022-10-31T05:23:02.382Z,97736.28
2022-10-31T05:25:30.455Z,97768.47
2022-10-31T05:27:58.016Z,97737.13
2022-10-31T05:30:27.057Z,97733.75
2022-10-31T05:32:53.701Z,97772.72
2022-10-31T05:35:22.146Z,97740.53
2022-10-31T05:37:49.026Z,97759.31
2022-10-31T05:40:17.197Z,97755.97
2022-10-31T05:42:44.083Z,97772.06
2022-10-31T05:45:11.878Z,97781.38
2022-10-31T05:47:38.627Z,97773.84
2022-10-31T05:50:05.575Z,97776.38
2022-10-31T05:52:32.135Z,97781.53
2022-10-31T05:54:58.955Z,97781.63
2022-10-31T05:57:25.877Z,97792.63
2022-10-31T05:59:55.372Z,97810.44
2022-10-31T06:02:22.145Z,97812.09
2022-10-31T06:04:48.804Z,97808.78
2022-10-31T06:07:15.427Z,97823.16
2022-10-31T06:09:42.208Z,97798.63
2022-10-31T06:12:08.762Z,97810.63
2022-10-31T06:14:35.339Z,97833.56
2022-10-31T06:17:01.911Z,97844.53
2022-10-31T06:19:28.482Z,97831.03
2022-10-31T06:21:55.101Z,97852.19
2022-10-31T06:24:21.636Z,97844.53
2022-10-31T06:26:48.228Z,97843.81
2022-10-31T06:29:14.822Z,97855.75
2022-10-31T06:31:41.407Z,97847.25
2022-10-31T06:34:07.960Z,97867.75
2022-10-31T06:36:34.508Z,97864.31
2022-10-31T06:39:01.513Z,97879.59
2022-10-31T06:41:28.105Z,97885.59
2022-10-31T06:43:54.664Z,97894.88
2022-10-31T06:46:21.210Z,97899.19
2022-10-31T06:48:47.817Z,97901.75
2022-10-31T06:51:14.473Z,97895.88
2022-10-31T06:53:41.027Z,97909.56
2022-10-31T06:56:07.710Z,97909.59
2022-10-31T06:58:34.247Z,97918.19
2022-10-31T07:01:01.609Z,97913.09
2022-10-31T07:03:28.372Z,97925.84
2022-10-31T07:05:58.291Z,97926.72
2022-10-31T07:08:25.107Z,97926.72
2022-10-31T07:10:53.394Z,97926.78
2022-10-31T07:13:22.680Z,97936.25
2022-10-31T07:15:49.267Z,97929.53
2022-10-31T07:18:15.823Z,97955.84
2022-10-31T07:20:42.372Z,97967.72
2022-10-31T07:23:10.619Z,97983.03
2022-10-31T07:25:37.696Z,97982.25
2022-10-31T07:28:04.450Z,97983.94
2022-10-31T07:30:31.208Z,97989.94
2022-10-31T07:32:57.942Z,97990.81
2022-10-31T07:35:26.011Z,98004.44
2022-10-31T07:37:52.625Z,98001.91
2022-10-31T07:40:19.800Z,98011.28
2022-10-31T07:42:47.916Z,98018.97
2022-10-31T07:45:15.686Z,98032.53
2022-10-31T07:47:48.805Z,98030.88
2022-10-31T07:50:20.147Z,98053.03
2022-10-31T07:52:46.966Z,98063.31
2022-10-31T07:55:13.727Z,98070.13
2022-10-31T07:57:43.100Z,98072.66
2022-10-31T08:00:10.718Z,98054.88
2022-10-31T08:02:37.513Z,98091.41
2022-10-31T08:05:04.152Z,98094.75
2022-10-31T08:07:30.963Z,98087.09
2022-10-31T08:09:57.620Z,98092.19
2022-10-31T08:12:24.176Z,98093.06
2022-10-31T08:14:51.326Z,98104.97
2022-10-31T08:17:17.940Z,98097.38
2022-10-31T08:19:44.493Z,98104.19
2022-10-31T08:22:11.054Z,98107.59
2022-10-31T08:24:40.347Z,98115.34
2022-10-31T08:27:06.905Z,98123.03
2022-10-31T08:29:33.483Z,98118.84
2022-10-31T08:32:00.114Z,98122.34
2022-10-31T08:34:26.742Z,98131.78
2022-10-31T08:36:53.335Z,98131.81
2022-10-31T08:39:19.934Z,98130.91
2022-10-31T08:41:46.529Z,98133.53
2022-10-31T08:44:13.263Z,98141.22
2022-10-31T08:46:39.947Z,98152.25
2022-10-31T08:49:06.531Z,98162.53
2022-10-31T08:51:33.181Z,98168.50
2022-10-31T08:53:59.806Z,98175.34
2022-10-31T08:56:26.354Z,98180.44
2022-10-31T08:58:54.053Z,98180.47
2022-10-31T09:01:20.749Z,98177.84
2022-10-31T09:03:47.541Z,98174.47
2022-10-31T09:06:14.182Z,98194.88
2022-10-31T09:08:40.974Z,98194.91
2022-10-31T09:11:07.723Z,98182.13
2022-10-31T09:13:38.743Z,98205.16
2022-10-31T09:16:07.912Z,98203.50
2022-10-31T09:18:34.640Z,98198.41
2022-10-31T09:21:01.668Z,98191.63
2022-10-31T09:23:28.621Z,98196.78
2022-10-31T09:25:55.533Z,98199.34
2022-10-31T09:28:23.130Z,98200.22
2022-10-31T09:30:51.307Z,98206.22
2022-10-31T09:33:18.500Z,98208.84
2022-10-31T09:35:45.491Z,98213.97
2022-10-31T09:38:13.550Z,98219.97
2022-10-31T09:40:40.218Z,98237.81
2022-10-31T09:43:09.573Z,98240.31
2022-10-31T09:45:36.129Z,98230.91
2022-10-31T09:48:15.160Z,98236.06
2022-10-31T09:50:44.723Z,98224.13
2022-10-31T09:53:17.812Z,98259.91
2022-10-31T09:55:47.788Z,98253.91
2022-10-31T09:58:36.749Z,98280.34
2022-10-31T10:01:06.558Z,98280.34
2022-10-31T10:03:42.270Z,98247.13
2022-10-31T10:06:12.041Z,98282.13
2022-10-31T10:08:39.241Z,98285.56
2022-10-31T10:11:11.995Z,98290.75
2022-10-31T10:13:53.807Z,98316.34
2022-10-31T10:16:26.682Z,98334.19
2022-10-31T10:18:53.232Z,98274.59
2022-10-31T10:21:19.847Z,98291.69
2022-10-31T10:24:04.766Z,98318.94
2022-10-31T10:26:36.313Z,98310.47
2022-10-31T10:29:07.242Z,98318.19
2022-10-31T10:31:40.506Z,98324.13
2022-10-31T10:34:07.281Z,98328.38
2022-10-31T10:36:38.715Z,98341.09
2022-10-31T10:39:20.844Z,98344.50
2022-10-31T10:42:09.659Z,98347.06
2022-10-31T10:44:59.698Z,98348.78
2022-10-31T10:47:39.782Z,98349.72
2022-10-31T10:50:12.180Z,98353.13
2022-10-31T10:52:43.511Z,98369.31
2022-10-31T10:55:23.585Z,98382.88
2022-10-31T10:57:56.629Z,98358.19
2022-10-31T11:00:35.524Z,98367.44
2022-10-31T11:03:02.588Z,98357.22
2022-10-31T11:05:29.375Z,98363.94
2022-10-31T11:07:56.019Z,98356.31
2022-10-31T11:10:22.658Z,98358.09
2022-10-31T11:13:18.668Z,98373.34
2022-10-31T11:15:57.307Z,98365.72
2022-10-31T11:20:59.040Z,98346.03
2022-10-31T11:23:27.236Z,98363.13
2022-10-31T11:26:01.678Z,98363.03
2022-10-31T11:28:30.428Z,98365.69
2022-10-31T11:30:58.940Z,98376.78
2022-10-31T11:33:28.111Z,98378.56
2022-10-31T11:35:58.029Z,98370.09
2022-10-31T11:38:27.305Z,98372.59
2022-10-31T11:41:05.016Z,98381.06
2022-10-31T11:43:31.596Z,98390.41
2022-10-31T11:45:58.241Z,98371.66
2022-10-31T11:48:26.143Z,98393.81
2022-10-31T11:50:58.106Z,98387.00
2022-10-31T11:53:31.713Z,98413.47
2022-10-31T11:56:13.415Z,98384.50
2022-10-31T11:58:40.758Z,98405.78
2022-10-31T12:01:21.173Z,98381.13
2022-10-31T12:03:50.501Z,98394.66
2022-10-31T12:06:23.429Z,98406.59
2022-10-31T12:08:50.435Z,98396.41
2022-10-31T12:11:35.483Z,98406.59
2022-10-31T12:14:18.372Z,98403.94
2022-10-31T12:16:52.211Z,98398.06
2022-10-31T12:19:31.388Z,98404.81
2022-10-31T12:22:06.471Z,98410.78
2022-10-31T12:24:51.785Z,98434.66
2022-10-31T12:27:29.767Z,98442.38
2022-10-31T12:30:16.650Z,98427.84
2022-10-31T12:32:46.404Z,98414.19
2022-10-31T12:35:19.106Z,98413.38
2022-10-31T12:37:55.250Z,98437.94
2022-10-31T12:40:44.875Z,98426.84
2022-10-31T12:43:23.496Z,98426.91
2022-10-31T12:45:50.113Z,98423.41
2022-10-31T12:48:19.429Z,98427.50
2022-10-31T12:50:52.335Z,98439.28
2022-10-31T12:53:37.531Z,98422.41
2022-10-31T12:56:04.120Z,98428.31
2022-10-31T12:58:34.492Z,98443.59
2022-10-31T13:01:33.566Z,98453.84
2022-10-31T13:04:06.773Z,98441.94
2022-10-31T13:06:43.456Z,98448.84
2022-10-31T13:09:21.415Z,98448.94
2022-10-31T13:12:03.598Z,98451.53
2022-10-31T13:14:30.158Z,98445.63
2022-10-31T13:16:57.668Z,98465.19
2022-10-31T13:19:42.096Z,98459.28
2022-10-31T13:22:19.647Z,98474.69
2022-10-31T13:25:00.519Z,98484.97
2022-10-31T13:27:29.338Z,98475.63
2022-10-31T13:30:07.429Z,98492.72
2022-10-31T13:33:00.600Z,98468.97
2022-10-31T13:35:39.691Z,98466.41
2022-10-31T13:38:16.257Z,98476.63
2022-10-31T13:40:58.761Z,98481.75
2022-10-31T13:43:25.374Z,98497.06
2022-10-31T13:45:53.150Z,98486.97
2022-10-31T13:48:33.634Z,98498.88
2022-10-31T13:51:03.095Z,98489.53
2022-10-31T13:53:46.876Z,98506.50
2022-10-31T13:56:18.747Z,98514.25
2022-10-31T13:58:57.479Z,98504.03
2022-10-31T14:01:24.444Z,98511.75
2022-10-31T14:04:22.301Z,98496.44
2022-10-31T14:06:54.532Z,98501.59
2022-10-31T14:09:35.833Z,98522.03
2022-10-31T14:12:08.339Z,98516.97
2022-10-31T14:14:41.187Z,98495.63
2022-10-31T14:17:17.212Z,98521.13
2022-10-31T14:19:43.838Z,98574.84
2022-10-31T14:22:23.061Z,98514.28
2022-10-31T14:24:49.648Z,98550.06
2022-10-31T14:27:25.503Z,98495.50
2022-10-31T14:29:52.056Z,98531.31
2022-10-31T14:32:19.231Z,98535.56
2022-10-31T14:34:51.587Z,98528.78
2022-10-31T14:37:50.594Z,98535.69
2022-10-31T14:40:27.441Z,98521.16
2022-10-31T14:42:53.983Z,98544.16
2022-10-31T14:45:49.926Z,98547.59
2022-10-31T14:48:16.493Z,98538.25
2022-10-31T14:50:45.887Z,98554.50
2022-10-31T14:53:21.782Z,98541.69
2022-10-31T14:55:50.382Z,98560.38
2022-10-31T14:58:20.616Z,98571.53
2022-10-31T15:00:47.374Z,98577.50
2022-10-31T15:03:19.655Z,98577.47
2022-10-31T15:05:51.401Z,98567.31
2022-10-31T15:08:39.862Z,98574.13
2022-10-31T15:11:14.375Z,98575.78
2022-10-31T15:13:45.771Z,98577.59
2022-10-31T15:16:14.423Z,98565.56
2022-10-31T15:18:52.646Z,98589.44
2022-10-31T15:21:24.013Z,98595.38
2022-10-31T15:23:52.732Z,98604.78
2022-10-31T15:26:20.628Z,98590.28
2022-10-31T15:28:47.541Z,98592.81
2022-10-31T15:31:16.525Z,98597.13
2022-10-31T15:33:48.102Z,98615.03
2022-10-31T15:36:29.260Z,98608.22
2022-10-31T15:38:58.806Z,98629.47
2022-10-31T15:41:29.691Z,98608.19
2022-10-31T15:43:59.064Z,98630.41
2022-10-31T15:46:25.673Z,98634.69
2022-10-31T15:48:52.271Z,98640.69
2022-10-31T15:51:26.125Z,98645.78
2022-10-31T15:53:55.005Z,98627.03
2022-10-31T15:56:28.069Z,98642.31
2022-10-31T15:58:55.884Z,98623.59
2022-10-31T16:01:24.320Z,98638.91
2022-10-31T16:04:20.895Z,98626.94
2022-10-31T16:06:58.089Z,98628.63
2022-10-31T16:09:25.312Z,98666.03
2022-10-31T16:11:51.933Z,98647.34
2022-10-31T16:14:25.338Z,98662.69
2022-10-31T16:16:56.619Z,98667.81
2022-10-31T16:19:34.797Z,98685.75
2022-10-31T16:22:27.756Z,98672.97
2022-10-31T16:25:17.303Z,98677.16
2022-10-31T16:27:54.512Z,98666.13
2022-10-31T16:30:45.445Z,98671.22
2022-10-31T16:33:29.197Z,98700.22
2022-10-31T16:36:09.640Z,98673.78
2022-10-31T16:38:43.343Z,98700.25
2022-10-31T16:41:09.983Z,98660.16
2022-10-31T16:43:36.542Z,98681.50
2022-10-31T16:46:03.229Z,98681.56
2022-10-31T16:48:29.855Z,98687.47
2022-10-31T16:50:57.518Z,98685.78
2022-10-31T16:53:24.317Z,98702.78
2022-10-31T16:55:57.855Z,98713.66
2022-10-31T16:58:26.303Z,98700.06
2022-10-31T17:00:53.516Z,98713.72
2022-10-31T17:03:20.161Z,98698.34
2022-10-31T17:05:46.847Z,98711.97
2022-10-31T17:08:13.525Z,98726.38
2022-10-31T17:10:40.794Z,98710.19
2022-10-31T17:13:08.399Z,98718.72
2022-10-31T17:15:40.243Z,98688.19
2022-10-31T17:18:06.984Z,98727.28
2022-10-31T17:20:33.658Z,98729.88
2022-10-31T17:23:00.889Z,98735.69
2022-10-31T17:25:29.219Z,98726.47
2022-10-31T17:27:55.822Z,98736.63
2022-10-31T17:30:22.600Z,98733.22
2022-10-31T17:32:49.902Z,98742.63
2022-10-31T17:35:17.077Z,98744.25
2022-10-31T17:37:44.378Z,98740.00
2022-10-31T17:40:11.716Z,98752.84
2022-10-31T17:42:38.495Z,98740.84
2022-10-31T17:45:08.559Z,98756.91
2022-10-31T17:47:35.466Z,98750.91
2022-10-31T17:50:02.030Z,98757.72
2022-10-31T17:52:29.812Z,98775.63
2022-10-31T17:54:56.433Z,98781.72
2022-10-31T17:57:22.988Z,98774.09
2022-10-31T17:59:49.598Z,98771.56
2022-10-31T18:02:16.284Z,98785.06
2022-10-31T18:04:43.114Z,98769.72
2022-10-31T18:07:09.703Z,98788.53
2022-10-31T18:09:36.381Z,98796.84
2022-10-31T18:12:03.073Z,98779.03
2022-10-31T18:14:29.686Z,98798.59
2022-10-31T18:16:56.307Z,98788.22
2022-10-31T18:19:22.901Z,98800.97
2022-10-31T18:21:49.475Z,98797.72
2022-10-31T18:24:16.023Z,98796.00
2022-10-31T18:26:42.795Z,98809.56
2022-10-31T18:29:10.541Z,98823.16
2022-10-31T18:31:37.179Z,98811.31
2022-10-31T18:34:03.814Z,98779.88
2022-10-31T18:36:30.446Z,98813.75
2022-10-31T18:38:57.126Z,98826.50
2022-10-31T18:41:23.900Z,98830.66
2022-10-31T18:43:50.641Z,98823.09
2022-10-31T18:46:18.536Z,98835.88
2022-10-31T18:48:45.555Z,98844.34
2022-10-31T18:51:14.440Z,98837.53
2022-10-31T18:53:41.221Z,98819.78
2022-10-31T18:56:09.241Z,98847.88
2022-10-31T18:58:35.982Z,98846.81
2022-10-31T19:01:10.131Z,98845.91
2022-10-31T19:03:36.969Z,98838.19
2022-10-31T19:06:03.628Z,98844.16
2022-10-31T19:08:30.457Z,98787.22
2022-10-31T19:11:03.568Z,98851.88
2022-10-31T19:13:31.611Z,98845.78
2022-10-31T19:16:03.475Z,98834.78
2022-10-31T19:18:30.055Z,98852.66
2022-10-31T19:20:56.695Z,98841.63
2022-10-31T19:23:23.290Z,98826.38
2022-10-31T19:25:49.864Z,98821.06
2022-10-31T19:28:16.399Z,98867.91
2022-10-31T19:30:43.031Z,98857.78
2022-10-31T19:33:09.664Z,98867.97
2022-10-31T19:35:36.551Z,98882.38
2022-10-31T19:38:03.520Z,98862.72
2022-10-31T19:40:30.335Z,98868.69
2022-10-31T19:42:58.363Z,98878.81
2022-10-31T19:45:24.939Z,98889.09
2022-10-31T19:47:51.531Z,98884.06
2022-10-31T19:50:18.168Z,98892.56
2022-10-31T19:52:44.762Z,98905.34
2022-10-31T19:55:11.386Z,98895.94
2022-10-31T19:58:00.875Z,98901.03
2022-10-31T20:00:25.808Z,98905.25
2022-10-31T20:02:52.384Z,98918.06
2022-10-31T20:05:18.926Z,98915.56
2022-10-31T20:07:45.483Z,98929.84
2022-10-31T20:10:12.128Z,98933.13
2022-10-31T20:12:39.001Z,98927.16
2022-10-31T20:15:05.859Z,98924.56
2022-10-31T20:17:32.488Z,98936.63
2022-10-31T20:19:59.133Z,98929.84
2022-10-31T20:22:25.802Z,98937.44
2022-10-31T20:24:52.352Z,98933.94
2022-10-31T20:27:18.945Z,98933.94
2022-10-31T20:29:45.668Z,98935.72
2022-10-31T20:32:12.360Z,98937.28
2022-10-31T20:34:39.241Z,98934.00
2022-10-31T20:37:05.926Z,98941.56
2022-10-31T20:39:32.551Z,98940.63
2022-10-31T20:41:59.172Z,98932.19
2022-10-31T20:44:25.787Z,98947.59
2022-10-31T20:46:52.932Z,98934.75
2022-10-31T20:49:19.527Z,98949.19
2022-10-31T20:51:46.095Z,98952.63
2022-10-31T20:54:13.636Z,98958.59
2022-10-31T20:56:40.271Z,98964.66
2022-10-31T20:59:07.433Z,98967.94
2022-10-31T21:01:36.289Z,98976.22
2022-10-31T21:04:04.479Z,98962.66
2022-10-31T21:06:31.260Z,98977.88
2022-10-31T21:08:57.879Z,98984.66
2022-10-31T21:11:26.131Z,98974.47
2022-10-31T21:13:53.035Z,98959.78
2022-10-31T21:16:19.589Z,98966.59
2022-10-31T21:18:46.866Z,98971.81
2022-10-31T21:21:15.216Z,98969.34
2022-10-31T21:23:43.108Z,98952.19
2022-10-31T21:26:12.023Z,98982.72
2022-10-31T21:28:38.734Z,98979.41
2022-10-31T21:31:06.534Z,98976.97
2022-10-31T21:33:33.509Z,98990.50
2022-10-31T21:36:00.051Z,98987.09
2022-10-31T21:38:26.674Z,98996.38
2022-10-31T21:41:00.116Z,99010.00
2022-10-31T21:43:26.686Z,99010.03
2022-10-31T21:45:53.243Z,99016.97
2022-10-31T21:48:19.803Z,99013.50
2022-10-31T21:50:46.334Z,99018.34
2022-10-31T21:53:31.661Z,99025.03
2022-10-31T21:56:02.208Z,99025.81
2022-10-31T21:58:30.606Z,99035.09
2022-10-31T22:01:02.843Z,99031.81
2022-10-31T22:03:29.439Z,99014.88
2022-10-31T22:06:00.514Z,99024.09
2022-10-31T22:08:28.417Z,99025.69
2022-10-31T22:10:54.979Z,99027.47
2022-10-31T22:13:21.624Z,99038.53
2022-10-31T22:15:48.161Z,99041.78
2022-10-31T22:18:14.995Z,99048.50
2022-10-31T22:20:41.526Z,98997.69
2022-10-31T22:23:09.433Z,99045.38
2022-10-31T22:25:37.331Z,99045.94
2022-10-31T22:28:07.003Z,99044.25
2022-10-31T22:30:33.754Z,99048.59
2022-10-31T22:33:01.401Z,99035.91
2022-10-31T22:35:28.262Z,99048.53
2022-10-31T22:37:54.831Z,99068.91
2022-10-31T22:40:21.465Z,99045.19
2022-10-31T22:42:48.115Z,99062.06
2022-10-31T22:45:14.760Z,99066.50
2022-10-31T22:50:12.889Z,99068.28
2022-10-31T22:52:39.435Z,99057.09
2022-10-31T22:55:06.247Z,99063.13
2022-10-31T22:57:32.763Z,99073.34
2022-10-31T22:59:59.327Z,99065.72
2022-10-31T23:02:27.347Z,99062.28
2022-10-31T23:04:53.966Z,99074.84
2022-10-31T23:07:23.196Z,99080.91
2022-10-31T23:09:50.974Z,99063.81
2022-10-31T23:12:36.506Z,99067.31
2022-10-31T23:15:03.286Z,99074.78
2022-10-31T23:17:30.917Z,99079.97
2022-10-31T23:19:57.447Z,99096.19
2022-10-31T23:22:24.098Z,99077.31
2022-10-31T23:24:50.648Z,99080.53
2022-10-31T23:27:21.637Z,99075.50
2022-10-31T23:29:49.598Z,99085.63
2022-10-31T23:32:16.183Z,99073.72
2022-10-31T23:34:42.795Z,99084.66
2022-10-31T23:37:09.422Z,99093.81
2022-10-31T23:39:36.095Z,99088.81
2022-10-31T23:42:02.950Z,99085.50
2022-10-31T23:44:29.703Z,99082.03
2022-10-31T23:46:56.426Z,99091.44
2022-10-31T23:49:23.063Z,99095.69
2022-10-31T23:51:49.802Z,99090.59
2022-10-31T23:54:16.342Z,99095.53
2022-10-31T23:56:43.105Z,99090.50
2022-10-31T23:59:09.826Z,99090.72
